createdAt,value
2022-11-28T00:31:53.245Z,15.68
2022-11-28T00:34:20.025Z,17.63
2022-11-28T00:36:47.784Z,20.02
2022-11-28T00:39:15.861Z,21.58
2022-11-28T00:41:43.646Z,28.00
2022-11-28T00:44:10.672Z,21.92
2022-11-28T00:46:37.759Z,16.20
2022-11-28T00:49:04.749Z,22.52
2022-11-28T00:51:33.198Z,27.02
2022-11-28T00:54:02.061Z,17.20
2022-11-28T00:56:32.302Z,19.92
2022-11-28T00:58:59.716Z,16.17
2022-11-28T01:01:33.194Z,23.55
2022-11-28T01:04:02.593Z,23.15
2022-11-28T01:06:38.513Z,18.67
2022-11-28T01:09:09.060Z,28.35
2022-11-28T01:11:39.009Z,21.60
2022-11-28T01:14:06.607Z,20.13
2022-11-28T01:16:33.447Z,20.15
2022-11-28T01:19:00.228Z,14.52
2022-11-28T01:21:27.722Z,18.02
2022-11-28T01:23:54.592Z,17.98
2022-11-28T01:26:27.860Z,18.20
2022-11-28T01:28:55.246Z,16.25
2022-11-28T01:31:25.081Z,15.68
2022-11-28T01:33:52.133Z,20.52
2022-11-28T01:36:20.781Z,21.85
2022-11-28T01:38:48.283Z,16.95
2022-11-28T01:41:17.859Z,13.02
2022-11-28T01:44:03.165Z,13.30
2022-11-28T01:46:30.540Z,14.80
2022-11-28T01:49:12.275Z,20.85
2022-11-28T01:51:42.539Z,13.85
2022-11-28T01:54:09.403Z,20.30
2022-11-28T01:56:45.341Z,11.98
2022-11-28T01:59:15.204Z,15.45
2022-11-28T02:01:44.298Z,11.10
2022-11-28T02:04:12.044Z,8.45
2022-11-28T02:06:38.825Z,11.50
2022-11-28T02:09:09.799Z,13.32
2022-11-28T02:11:54.547Z,9.05
2022-11-28T02:14:30.317Z,12.65
2022-11-28T02:17:00.150Z,11.25
2022-11-28T02:19:45.570Z,3.75
2022-11-28T02:22:27.206Z,10.50
2022-11-28T02:24:59.519Z,10.70
2022-11-28T02:27:54.217Z,8.90
2022-11-28T02:30:33.003Z,6.25
2022-11-28T02:33:05.867Z,9.38
2022-11-28T02:36:02.765Z,6.93
2022-11-28T02:38:48.075Z,8.02
2022-11-28T02:41:35.010Z,12.15
2022-11-28T02:44:10.749Z,5.13
2022-11-28T02:46:49.251Z,8.25
2022-11-28T02:49:38.948Z,7.38
2022-11-28T02:52:13.145Z,10.25
2022-11-28T02:54:42.368Z,6.75
2022-11-28T02:57:09.365Z,4.45
2022-11-28T02:59:39.165Z,7.15
2022-11-28T03:02:14.177Z,12.30
2022-11-28T03:05:00.159Z,13.30
2022-11-28T03:07:36.239Z,8.85
2022-11-28T03:10:28.409Z,14.38
2022-11-28T03:13:20.154Z,7.30
2022-11-28T03:16:22.055Z,15.98
2022-11-28T03:19:12.763Z,11.27
2022-11-28T03:21:52.414Z,13.73
2022-11-28T03:24:19.229Z,14.65
2022-11-28T03:27:06.805Z,13.32
2022-11-28T03:29:56.256Z,18.27
2022-11-28T03:32:27.059Z,17.17
2022-11-28T03:35:04.764Z,19.42
2022-11-28T03:37:35.913Z,19.35
2022-11-28T03:40:07.758Z,19.08
2022-11-28T03:42:42.624Z,17.63
2022-11-28T03:45:11.529Z,10.95
2022-11-28T03:47:47.373Z,19.00
2022-11-28T03:50:19.874Z,13.95
2022-11-28T03:52:55.033Z,8.93
2022-11-28T03:55:36.732Z,9.00
2022-11-28T03:58:22.788Z,10.85
2022-11-28T04:01:07.708Z,11.32
2022-11-28T04:03:46.202Z,7.00
2022-11-28T04:06:29.579Z,11.82
2022-11-28T04:09:11.553Z,15.23
2022-11-28T04:11:49.744Z,16.30
2022-11-28T04:14:25.886Z,12.57
2022-11-28T04:16:59.299Z,10.48
2022-11-28T04:19:34.192Z,14.15
2022-11-28T04:22:10.909Z,6.93
2022-11-28T04:24:43.049Z,10.82
2022-11-28T04:27:17.978Z,9.07
2022-11-28T04:29:51.384Z,11.80
2022-11-28T04:32:20.504Z,10.90
2022-11-28T04:34:53.036Z,11.15
2022-11-28T04:37:22.117Z,9.85
2022-11-28T04:39:50.637Z,11.25
2022-11-28T04:42:22.247Z,6.90
2022-11-28T04:45:01.955Z,8.23
2022-11-28T04:47:29.639Z,16.08
2022-11-28T04:49:56.687Z,12.40
2022-11-28T04:52:43.655Z,9.27
2022-11-28T04:55:22.573Z,16.10
2022-11-28T04:57:57.240Z,13.73
2022-11-28T05:00:24.478Z,16.05
2022-11-28T05:02:54.705Z,10.50
2022-11-28T05:05:25.311Z,9.10
2022-11-28T05:07:53.132Z,7.95
2022-11-28T05:10:20.436Z,9.18
2022-11-28T05:12:47.298Z,17.05
2022-11-28T05:15:19.164Z,12.07
2022-11-28T05:17:47.167Z,11.70
2022-11-28T05:20:14.390Z,15.68
2022-11-28T05:22:41.439Z,14.27
2022-11-28T05:25:08.476Z,10.63
2022-11-28T05:27:35.320Z,15.05
2022-11-28T05:30:02.176Z,17.73
2022-11-28T05:32:33.087Z,12.77
2022-11-28T05:35:00.058Z,15.63
2022-11-28T05:37:26.832Z,17.45
2022-11-28T05:39:54.026Z,20.02
2022-11-28T05:42:20.971Z,14.02
2022-11-28T05:44:50.805Z,15.45
2022-11-28T05:47:18.029Z,15.63
2022-11-28T05:49:47.070Z,10.75
2022-11-28T05:52:13.839Z,19.63
2022-11-28T05:54:40.555Z,13.98
2022-11-28T05:57:07.815Z,22.95
2022-11-28T05:59:35.072Z,20.67
2022-11-28T06:02:01.967Z,12.95
2022-11-28T06:04:29.005Z,17.73
2022-11-28T06:06:55.839Z,17.13
2022-11-28T06:09:25.798Z,14.32
2022-11-28T06:11:53.079Z,14.40
2022-11-28T06:14:19.931Z,14.25
2022-11-28T06:16:47.012Z,23.98
2022-11-28T06:19:13.950Z,9.85
2022-11-28T06:21:40.921Z,18.73
2022-11-28T06:24:08.111Z,23.58
2022-11-28T06:26:34.856Z,17.63
2022-11-28T06:29:01.616Z,10.23
2022-11-28T06:31:30.342Z,15.18
2022-11-28T06:33:58.673Z,19.75
2022-11-28T06:36:26.521Z,13.43
2022-11-28T06:38:54.306Z,15.52
2022-11-28T06:41:23.116Z,17.42
2022-11-28T06:43:50.099Z,20.02
2022-11-28T06:46:20.018Z,17.50
2022-11-28T06:48:48.568Z,17.95
2022-11-28T06:51:16.446Z,17.13
2022-11-28T06:53:43.520Z,26.77
2022-11-28T06:56:14.236Z,26.73
2022-11-28T06:58:42.225Z,10.85
2022-11-28T07:01:17.035Z,19.42
2022-11-28T07:03:44.957Z,13.68
2022-11-28T07:06:12.784Z,14.02
2022-11-28T07:08:40.201Z,26.73
2022-11-28T07:11:08.049Z,20.98
2022-11-28T07:13:34.914Z,13.48
2022-11-28T07:16:01.668Z,21.25
2022-11-28T07:18:28.422Z,18.38
2022-11-28T07:20:55.304Z,20.15
2022-11-28T07:23:22.049Z,32.08
2022-11-28T07:25:48.799Z,22.52
2022-11-28T07:28:18.431Z,22.30
2022-11-28T07:30:47.508Z,19.30
2022-11-28T07:33:14.287Z,24.75
2022-11-28T07:35:41.200Z,20.27
2022-11-28T07:38:07.964Z,22.48
2022-11-28T07:40:34.758Z,21.92
2022-11-28T07:43:01.471Z,24.08
2022-11-28T07:45:47.154Z,16.33
2022-11-28T07:48:14.956Z,20.60
2022-11-28T07:50:41.709Z,16.80
2022-11-28T07:53:08.441Z,24.20
2022-11-28T07:55:36.570Z,27.02
2022-11-28T07:58:03.958Z,22.88
2022-11-28T08:00:30.829Z,26.75
2022-11-28T08:02:57.616Z,25.20
2022-11-28T08:05:24.379Z,21.67
2022-11-28T08:07:51.460Z,22.42
2022-11-28T08:10:18.656Z,30.33
2022-11-28T08:12:45.625Z,24.77
2022-11-28T08:15:12.454Z,23.70
2022-11-28T08:17:39.277Z,28.98
2022-11-28T08:20:06.946Z,22.75
2022-11-28T08:22:33.782Z,29.95
2022-11-28T08:25:00.526Z,24.33
2022-11-28T08:27:27.235Z,20.52
2022-11-28T08:29:54.376Z,25.92
2022-11-28T08:32:21.417Z,22.42
2022-11-28T08:34:48.157Z,18.42
2022-11-28T08:37:14.980Z,17.50
2022-11-28T08:39:42.201Z,22.33
2022-11-28T08:42:09.085Z,20.98
2022-11-28T08:44:36.284Z,29.83
2022-11-28T08:47:03.018Z,17.95
2022-11-28T08:49:29.768Z,16.58
2022-11-28T08:51:56.631Z,17.98
2022-11-28T08:54:23.362Z,18.08
2022-11-28T08:56:50.203Z,24.50
2022-11-28T08:59:17.055Z,14.60
2022-11-28T09:01:43.896Z,12.48
2022-11-28T09:04:10.666Z,16.67
2022-11-28T09:06:39.663Z,24.08
2022-11-28T09:09:06.510Z,20.20
2022-11-28T09:11:33.252Z,22.77
2022-11-28T09:14:00.397Z,19.83
2022-11-28T09:16:27.255Z,22.40
2022-11-28T09:18:54.958Z,22.88
2022-11-28T09:21:21.888Z,17.02
2022-11-28T09:23:48.749Z,15.52
2022-11-28T09:26:18.216Z,20.83
2022-11-28T09:28:46.653Z,18.80
2022-11-28T09:31:15.370Z,16.17
2022-11-28T09:33:42.846Z,19.38
2022-11-28T09:36:13.098Z,13.80
2022-11-28T09:38:40.793Z,16.05
2022-11-28T09:41:25.749Z,24.02
2022-11-28T09:43:55.290Z,16.65
2022-11-28T09:46:29.186Z,12.98
2022-11-28T09:49:00.744Z,18.95
2022-11-28T09:51:46.351Z,17.00
2022-11-28T09:54:23.263Z,16.73
2022-11-28T09:56:50.837Z,13.57
2022-11-28T09:59:25.730Z,24.48
2022-11-28T10:02:19.594Z,15.88
2022-11-28T10:05:01.708Z,18.33
2022-11-28T10:07:40.678Z,21.30
2022-11-28T10:10:35.024Z,16.00
2022-11-28T10:14:07.034Z,21.02
2022-11-28T10:16:54.008Z,20.98
2022-11-28T10:20:02.954Z,25.98
2022-11-28T10:22:45.219Z,21.88
2022-11-28T10:25:18.299Z,18.13
2022-11-28T10:27:47.076Z,16.42
2022-11-28T10:30:24.066Z,20.27
2022-11-28T10:33:22.988Z,22.17
2022-11-28T10:35:56.404Z,24.00
2022-11-28T10:38:29.494Z,25.25
2022-11-28T10:41:02.536Z,14.45
2022-11-28T10:43:49.551Z,18.30
2022-11-28T10:46:47.215Z,27.55
2022-11-28T10:49:33.411Z,16.90
2022-11-28T10:52:15.819Z,22.55
2022-11-28T10:54:54.697Z,17.92
2022-11-28T10:57:31.580Z,16.08
2022-11-28T11:00:14.906Z,16.30
2022-11-28T11:02:46.683Z,17.13
2022-11-28T11:05:19.983Z,18.52
2022-11-28T11:07:51.829Z,18.67
2022-11-28T11:10:21.663Z,19.50
2022-11-28T11:12:52.648Z,22.60
2022-11-28T11:15:21.497Z,19.45
2022-11-28T11:17:50.587Z,25.20
2022-11-28T11:20:23.077Z,16.40
2022-11-28T11:22:57.870Z,18.70
2022-11-28T11:25:27.412Z,18.63
2022-11-28T11:28:01.964Z,10.63
2022-11-28T11:30:33.777Z,21.80
2022-11-28T11:33:04.057Z,11.88
2022-11-28T11:35:35.917Z,18.20
2022-11-28T11:38:20.940Z,18.17
2022-11-28T11:40:49.197Z,18.38
2022-11-28T11:43:33.597Z,19.58
2022-11-28T11:46:26.762Z,14.13
2022-11-28T11:48:54.577Z,13.25
2022-11-28T11:51:32.657Z,17.67
2022-11-28T11:54:16.772Z,17.80
2022-11-28T11:59:26.947Z,23.27
2022-11-28T12:02:02.511Z,16.77
2022-11-28T12:04:46.444Z,15.55
2022-11-28T12:07:28.323Z,15.60
2022-11-28T12:10:00.523Z,12.85
2022-11-28T12:12:35.330Z,14.20
2022-11-28T12:15:02.154Z,11.15
2022-11-28T12:17:54.518Z,10.55
2022-11-28T12:20:29.934Z,8.43
2022-11-28T12:23:17.586Z,9.55
2022-11-28T12:25:44.588Z,9.20
2022-11-28T12:28:36.079Z,7.18
2022-11-28T12:31:32.341Z,7.45
2022-11-28T12:34:08.580Z,9.85
2022-11-28T12:36:47.424Z,4.13
2022-11-28T12:39:32.598Z,8.10
2022-11-28T12:42:17.371Z,7.90
2022-11-28T12:44:48.589Z,12.75
2022-11-28T12:47:20.985Z,5.20
2022-11-28T12:49:56.873Z,5.80
2022-11-28T12:52:35.715Z,8.93
2022-11-28T12:55:31.402Z,5.25
2022-11-28T12:58:07.009Z,10.88
2022-11-28T13:00:39.583Z,10.20
2022-11-28T13:03:16.773Z,13.38
2022-11-28T13:06:28.042Z,6.22
2022-11-28T13:09:09.303Z,5.93
2022-11-28T13:11:54.305Z,10.85
2022-11-28T13:14:49.326Z,14.25
2022-11-28T13:17:46.824Z,11.15
2022-11-28T13:20:20.742Z,11.25
2022-11-28T13:23:02.891Z,15.30
2022-11-28T13:25:57.488Z,9.90
2022-11-28T13:28:36.187Z,13.75
2022-11-28T13:31:23.366Z,13.73
2022-11-28T13:33:57.332Z,8.73
2022-11-28T13:39:20.117Z,17.83
2022-11-28T13:42:16.269Z,12.10
2022-11-28T13:45:09.078Z,9.65
2022-11-28T13:47:37.575Z,18.40
2022-11-28T13:50:25.421Z,12.70
2022-11-28T13:53:07.354Z,15.82
2022-11-28T13:55:47.086Z,15.60
2022-11-28T13:58:19.872Z,16.98
2022-11-28T14:01:08.066Z,14.55
2022-11-28T14:03:44.221Z,13.05
2022-11-28T14:06:13.521Z,22.23
2022-11-28T14:08:43.777Z,19.95
2022-11-28T14:11:27.885Z,21.25
2022-11-28T14:14:04.063Z,13.75
2022-11-28T14:16:52.462Z,18.00
2022-11-28T14:19:25.963Z,18.70
2022-11-28T14:22:12.992Z,15.93
2022-11-28T14:25:04.453Z,15.60
2022-11-28T14:27:34.685Z,21.77
2022-11-28T14:30:02.528Z,12.70
2022-11-28T14:32:37.151Z,13.75
2022-11-28T14:35:11.665Z,11.93
2022-11-28T14:37:53.065Z,20.20
2022-11-28T14:43:23.967Z,11.30
2022-11-28T14:45:52.257Z,18.10
2022-11-28T14:48:29.316Z,17.50
2022-11-28T14:51:01.839Z,18.10
2022-11-28T14:53:58.390Z,8.82
2022-11-28T14:56:28.167Z,21.63
2022-11-28T14:59:02.240Z,19.67
2022-11-28T15:01:49.436Z,20.27
2022-11-28T15:04:37.459Z,18.60
2022-11-28T15:07:14.208Z,15.30
2022-11-28T15:10:07.518Z,19.00
2022-11-28T15:13:10.239Z,22.40
2022-11-28T15:15:37.185Z,17.95
2022-11-28T15:18:04.998Z,12.40
2022-11-28T15:20:48.595Z,21.13
2022-11-28T15:23:33.328Z,17.05
2022-11-28T15:26:02.311Z,21.90
2022-11-28T15:28:32.503Z,30.08
2022-11-28T15:31:06.944Z,18.75
2022-11-28T15:33:34.033Z,24.05
2022-11-28T15:36:10.943Z,14.85
2022-11-28T15:38:38.520Z,10.50
2022-11-28T15:41:05.769Z,17.05
2022-11-28T15:43:32.869Z,28.80
2022-11-28T15:46:01.643Z,18.20
2022-11-28T15:48:40.194Z,25.08
2022-11-28T15:51:07.882Z,26.63
2022-11-28T15:53:41.236Z,20.02
2022-11-28T15:56:11.181Z,21.80
2022-11-28T15:58:38.461Z,20.17
2022-11-28T16:01:25.781Z,21.17
2022-11-28T16:04:17.396Z,27.58
2022-11-28T16:09:18.447Z,16.98
2022-11-28T16:11:48.473Z,15.90
2022-11-28T16:14:21.550Z,16.65
2022-11-28T16:16:48.564Z,20.55
2022-11-28T16:19:22.948Z,18.95
2022-11-28T16:22:00.312Z,16.42
2022-11-28T16:24:42.784Z,19.20
2022-11-28T16:27:28.275Z,24.63
2022-11-28T16:29:55.017Z,18.88
2022-11-28T16:32:32.228Z,18.67
2022-11-28T16:35:02.543Z,17.05
2022-11-28T16:37:31.218Z,14.05
2022-11-28T16:40:14.309Z,20.50
2022-11-28T16:42:41.493Z,13.50
2022-11-28T16:45:17.969Z,14.13
2022-11-28T16:47:45.896Z,11.65
2022-11-28T16:50:23.040Z,12.75
2022-11-28T16:52:50.992Z,19.45
2022-11-28T16:55:33.198Z,18.73
2022-11-28T16:58:10.963Z,30.17
2022-11-28T17:00:42.370Z,34.15
2022-11-28T17:03:43.313Z,43.33
2022-11-28T17:06:17.734Z,40.87
2022-11-28T17:08:44.976Z,60.25
2022-11-28T17:11:13.623Z,31.15
2022-11-28T17:13:40.633Z,24.30
2022-11-28T17:16:16.559Z,20.90
2022-11-28T17:18:44.020Z,14.68
2022-11-28T17:21:12.476Z,9.00
2022-11-28T17:23:41.141Z,21.63
2022-11-28T17:26:09.289Z,12.57
2022-11-28T17:28:36.446Z,22.83
2022-11-28T17:31:03.320Z,14.05
2022-11-28T17:33:30.379Z,11.40
2022-11-28T17:35:59.315Z,15.57
2022-11-28T17:38:26.336Z,30.08
2022-11-28T17:40:53.547Z,28.55
2022-11-28T17:43:22.401Z,21.00
2022-11-28T17:45:50.835Z,21.25
2022-11-28T17:48:18.458Z,14.85
2022-11-28T17:50:47.635Z,17.40
2022-11-28T17:53:17.757Z,15.43
2022-11-28T17:55:48.251Z,12.65
2022-11-28T17:58:18.071Z,18.73
2022-11-28T18:00:45.080Z,20.25
2022-11-28T18:03:12.266Z,12.40
2022-11-28T18:05:41.384Z,10.95
2022-11-28T18:08:08.836Z,10.23
2022-11-28T18:10:35.966Z,19.45
2022-11-28T18:13:02.836Z,14.20
2022-11-28T18:15:29.700Z,16.95
2022-11-28T18:17:56.442Z,18.13
2022-11-28T18:20:23.266Z,18.33
2022-11-28T18:22:50.052Z,19.02
2022-11-28T18:25:16.765Z,13.43
2022-11-28T18:27:43.492Z,18.77
2022-11-28T18:30:10.867Z,22.67
2022-11-28T18:32:37.692Z,24.60
2022-11-28T18:35:04.830Z,51.65
2022-11-28T18:37:32.625Z,47.63
2022-11-28T18:39:59.388Z,43.78
2022-11-28T18:42:26.652Z,18.95
2022-11-28T18:44:53.447Z,20.17
2022-11-28T18:47:20.199Z,20.70
2022-11-28T18:49:47.060Z,13.65
2022-11-28T18:52:13.934Z,18.55
2022-11-28T18:54:40.726Z,18.17
2022-11-28T18:57:08.217Z,13.75
2022-11-28T18:59:35.043Z,16.85
2022-11-28T19:02:01.800Z,21.23
2022-11-28T19:04:28.564Z,13.30
2022-11-28T19:06:55.300Z,21.30
2022-11-28T19:09:22.625Z,15.55
2022-11-28T19:11:49.462Z,17.85
2022-11-28T19:14:18.199Z,16.88
2022-11-28T19:16:46.932Z,18.80
2022-11-28T19:19:13.851Z,14.70
2022-11-28T19:21:40.620Z,23.55
2022-11-28T19:24:08.639Z,16.70
2022-11-28T19:26:36.140Z,16.77
2022-11-28T19:29:03.306Z,17.80
2022-11-28T19:31:33.200Z,20.17
2022-11-28T19:34:02.350Z,16.98
2022-11-28T19:36:31.099Z,19.90
2022-11-28T19:38:59.240Z,14.57
2022-11-28T19:41:27.225Z,29.10
2022-11-28T19:43:54.080Z,18.08
2022-11-28T19:46:20.911Z,15.10
2022-11-28T19:48:47.786Z,21.73
2022-11-28T19:51:15.976Z,22.83
2022-11-28T19:53:43.800Z,26.00
2022-11-28T19:56:16.732Z,22.05
2022-11-28T20:01:12.624Z,20.75
2022-11-28T20:03:41.244Z,16.27
2022-11-28T20:06:14.482Z,20.17
2022-11-28T20:08:41.970Z,18.63
2022-11-28T20:11:14.816Z,22.35
2022-11-28T20:13:42.433Z,19.48
2022-11-28T20:16:10.639Z,20.60
2022-11-28T20:18:39.112Z,30.70
2022-11-28T20:21:16.490Z,23.52
2022-11-28T20:23:46.198Z,27.38
2022-11-28T20:26:14.605Z,25.25
2022-11-28T20:28:42.801Z,18.30
2022-11-28T20:31:19.288Z,22.05
2022-11-28T20:33:46.422Z,25.67
2022-11-28T20:36:15.832Z,22.73
2022-11-28T20:38:42.604Z,27.83
2022-11-28T20:41:11.514Z,37.00
2022-11-28T20:43:39.963Z,40.03
2022-11-28T20:46:12.781Z,29.88
2022-11-28T20:48:40.491Z,31.77
2022-11-28T20:51:16.112Z,26.98
2022-11-28T20:53:43.006Z,32.25
2022-11-28T20:56:13.835Z,26.27
2022-11-28T20:58:41.376Z,38.95
2022-11-28T21:01:08.568Z,23.48
2022-11-28T21:03:37.071Z,19.50
2022-11-28T21:06:03.940Z,14.38
2022-11-28T21:08:31.463Z,17.85
2022-11-28T21:10:58.183Z,18.23
2022-11-28T21:13:25.301Z,27.92
2022-11-28T21:15:53.548Z,24.60
2022-11-28T21:18:20.396Z,22.85
2022-11-28T21:20:47.711Z,33.63
2022-11-28T21:23:16.410Z,30.35
2022-11-28T21:25:44.042Z,23.55
2022-11-28T21:28:12.187Z,32.17
2022-11-28T21:30:44.715Z,26.10
2022-11-28T21:33:12.269Z,32.55
2022-11-28T21:35:39.972Z,21.90
2022-11-28T21:38:07.226Z,31.50
2022-11-28T21:40:33.967Z,30.15
2022-11-28T21:43:00.850Z,23.80
2022-11-28T21:45:27.726Z,20.88
2022-11-28T21:47:54.481Z,27.50
2022-11-28T21:50:21.276Z,26.25
2022-11-28T21:52:48.100Z,24.85
2022-11-28T21:55:14.898Z,23.13
2022-11-28T21:57:42.429Z,24.63
2022-11-28T22:00:25.662Z,30.15
2022-11-28T22:03:02.949Z,22.38
2022-11-28T22:05:33.083Z,22.77
2022-11-28T22:08:00.410Z,16.58
2022-11-28T22:10:27.477Z,15.90
2022-11-28T22:12:54.183Z,17.48
2022-11-28T22:15:22.242Z,17.63
2022-11-28T22:17:51.705Z,20.20
2022-11-28T22:20:18.622Z,17.38
2022-11-28T22:22:47.700Z,25.20
2022-11-28T22:25:14.492Z,19.77
2022-11-28T22:27:41.245Z,24.77
2022-11-28T22:30:08.855Z,22.73
2022-11-28T22:32:35.625Z,21.88
2022-11-28T22:35:02.823Z,13.95
2022-11-28T22:37:29.660Z,15.40
2022-11-28T22:39:56.388Z,19.55
2022-11-28T22:42:23.237Z,27.13
2022-11-28T22:44:49.953Z,15.00
2022-11-28T22:47:16.746Z,23.08
2022-11-28T22:49:43.536Z,21.27
2022-11-28T22:52:10.255Z,14.43
2022-11-28T22:54:37.033Z,21.25
2022-11-28T22:57:03.911Z,29.10
2022-11-28T22:59:33.776Z,16.05
2022-11-28T23:02:00.721Z,19.48
2022-11-28T23:04:27.656Z,21.80
2022-11-28T23:06:54.400Z,22.90
2022-11-28T23:09:21.367Z,20.92
2022-11-28T23:11:48.213Z,27.00
2022-11-28T23:14:15.403Z,25.15
2022-11-28T23:16:43.730Z,25.52
2022-11-28T23:19:13.493Z,24.98
2022-11-28T23:21:42.337Z,22.85
2022-11-28T23:24:13.748Z,27.40
2022-11-28T23:29:07.555Z,24.08
2022-11-28T23:31:37.623Z,25.88
2022-11-28T23:34:04.883Z,20.40
2022-11-28T23:36:40.130Z,28.02
2022-11-28T23:39:20.729Z,33.20
2022-11-28T23:41:48.068Z,35.10
2022-11-28T23:44:18.387Z,20.92
2022-11-28T23:46:46.086Z,21.35
2022-11-28T23:49:13.705Z,22.02
2022-11-28T23:51:41.426Z,24.38
2022-11-28T23:54:09.327Z,26.08
2022-11-28T23:56:37.699Z,18.05
2022-11-28T23:59:06.464Z,17.50
